sensor_id;sensor_type;location;lat;lon;timestamp;P1;durP1;ratioP1;P2;durP2;ratioP2
41927;SDS011;27616;51.420;6.788;2022-10-18T00:01:38;9.00;;;3.80;;
41927;SDS011;27616;51.420;6.788;2022-10-18T00:04:04;7.47;;;4.15;;
41927;SDS011;27616;51.420;6.788;2022-10-18T00:06:30;6.75;;;3.83;;
41927;SDS011;27616;51.420;6.788;2022-10-18T00:08:55;8.60;;;3.95;;
41927;SDS011;27616;51.420;6.788;2022-10-18T00:11:21;6.68;;;3.60;;
41927;SDS011;27616;51.420;6.788;2022-10-18T00:13:47;6.75;;;3.88;;
41927;SDS011;27616;51.420;6.788;2022-10-18T00:16:14;6.70;;;3.38;;
41927;SDS011;27616;51.420;6.788;2022-10-18T00:18:41;6.40;;;3.55;;
41927;SDS011;27616;51.420;6.788;2022-10-18T00:21:12;9.15;;;3.60;;
41927;SDS011;27616;51.420;6.788;2022-10-18T00:23:40;6.93;;;3.67;;
41927;SDS011;27616;51.420;6.788;2022-10-18T00:26:11;7.80;;;3.55;;
41927;SDS011;27616;51.420;6.788;2022-10-18T00:28:38;8.02;;;3.40;;
41927;SDS011;27616;51.420;6.788;2022-10-18T00:31:15;10.15;;;3.45;;
41927;SDS011;27616;51.420;6.788;2022-10-18T00:33:48;8.63;;;3.60;;
41927;SDS011;27616;51.420;6.788;2022-10-18T00:36:16;7.47;;;3.47;;
41927;SDS011;27616;51.420;6.788;2022-10-18T00:38:42;8.23;;;3.53;;
41927;SDS011;27616;51.420;6.788;2022-10-18T00:41:10;7.93;;;3.63;;
41927;SDS011;27616;51.420;6.788;2022-10-18T00:48:54;9.35;;;3.75;;
41927;SDS011;27616;51.420;6.788;2022-10-18T00:51:21;5.93;;;3.58;;
41927;SDS011;27616;51.420;6.788;2022-10-18T00:56:16;9.88;;;3.78;;
41927;SDS011;27616;51.420;6.788;2022-10-18T00:58:43;7.13;;;3.67;;
41927;SDS011;27616;51.420;6.788;2022-10-18T01:01:10;5.65;;;3.33;;
41927;SDS011;27616;51.420;6.788;2022-10-18T01:03:36;8.23;;;3.53;;
41927;SDS011;27616;51.420;6.788;2022-10-18T01:06:03;7.65;;;3.90;;
41927;SDS011;27616;51.420;6.788;2022-10-18T01:09:12;6.32;;;3.50;;
41927;SDS011;27616;51.420;6.788;2022-10-18T01:11:45;7.63;;;3.67;;
41927;SDS011;27616;51.420;6.788;2022-10-18T01:17:03;9.40;;;3.53;;
41927;SDS011;27616;51.420;6.788;2022-10-18T01:22:27;6.25;;;3.30;;
41927;SDS011;27616;51.420;6.788;2022-10-18T01:33:47;7.47;;;3.78;;
41927;SDS011;27616;51.420;6.788;2022-10-18T01:36:18;6.68;;;3.30;;
41927;SDS011;27616;51.420;6.788;2022-10-18T01:38:48;7.60;;;3.65;;
41927;SDS011;27616;51.420;6.788;2022-10-18T01:41:18;7.30;;;3.50;;
41927;SDS011;27616;51.420;6.788;2022-10-18T01:43:46;9.00;;;3.80;;
41927;SDS011;27616;51.420;6.788;2022-10-18T01:46:16;9.85;;;3.92;;
41927;SDS011;27616;51.420;6.788;2022-10-18T01:48:46;7.60;;;4.00;;
41927;SDS011;27616;51.420;6.788;2022-10-18T01:51:12;4.72;;;2.85;;
41927;SDS011;27616;51.420;6.788;2022-10-18T01:53:38;8.95;;;4.03;;
41927;SDS011;27616;51.420;6.788;2022-10-18T02:04:22;6.82;;;4.15;;
41927;SDS011;27616;51.420;6.788;2022-10-18T02:07:05;6.28;;;3.70;;
41927;SDS011;27616;51.420;6.788;2022-10-18T02:09:45;8.27;;;4.25;;
41927;SDS011;27616;51.420;6.788;2022-10-18T02:12:19;8.15;;;4.20;;
41927;SDS011;27616;51.420;6.788;2022-10-18T02:14:46;6.03;;;3.95;;
41927;SDS011;27616;51.420;6.788;2022-10-18T02:17:13;8.05;;;3.92;;
41927;SDS011;27616;51.420;6.788;2022-10-18T02:19:42;8.80;;;4.00;;
41927;SDS011;27616;51.420;6.788;2022-10-18T02:22:11;7.13;;;3.60;;
41927;SDS011;27616;51.420;6.788;2022-10-18T02:24:40;10.48;;;4.10;;
41927;SDS011;27616;51.420;6.788;2022-10-18T02:27:14;6.65;;;3.85;;
41927;SDS011;27616;51.420;6.788;2022-10-18T02:29:40;8.68;;;4.40;;
41927;SDS011;27616;51.420;6.788;2022-10-18T02:32:11;7.03;;;3.67;;
41927;SDS011;27616;51.420;6.788;2022-10-18T02:34:56;8.55;;;3.50;;
41927;SDS011;27616;51.420;6.788;2022-10-18T02:37:27;7.82;;;3.90;;
41927;SDS011;27616;51.420;6.788;2022-10-18T02:39:57;9.18;;;4.10;;
41927;SDS011;27616;51.420;6.788;2022-10-18T02:42:23;7.53;;;4.20;;
41927;SDS011;27616;51.420;6.788;2022-10-18T02:44:49;7.85;;;4.20;;
41927;SDS011;27616;51.420;6.788;2022-10-18T02:47:15;8.93;;;4.93;;
41927;SDS011;27616;51.420;6.788;2022-10-18T02:49:41;11.38;;;4.70;;
41927;SDS011;27616;51.420;6.788;2022-10-18T02:52:07;9.07;;;4.57;;
41927;SDS011;27616;51.420;6.788;2022-10-18T02:54:33;7.05;;;4.00;;
41927;SDS011;27616;51.420;6.788;2022-10-18T02:56:59;6.70;;;4.18;;
41927;SDS011;27616;51.420;6.788;2022-10-18T02:59:24;7.85;;;4.40;;
41927;SDS011;27616;51.420;6.788;2022-10-18T03:01:50;7.70;;;4.35;;
41927;SDS011;27616;51.420;6.788;2022-10-18T03:04:16;6.00;;;4.03;;
41927;SDS011;27616;51.420;6.788;2022-10-18T03:06:42;8.50;;;4.50;;
41927;SDS011;27616;51.420;6.788;2022-10-18T03:09:08;7.90;;;4.35;;
41927;SDS011;27616;51.420;6.788;2022-10-18T03:11:34;7.03;;;4.10;;
41927;SDS011;27616;51.420;6.788;2022-10-18T03:14:00;9.18;;;5.00;;
41927;SDS011;27616;51.420;6.788;2022-10-18T03:16:26;10.52;;;4.90;;
41927;SDS011;27616;51.420;6.788;2022-10-18T03:18:52;8.77;;;4.95;;
41927;SDS011;27616;51.420;6.788;2022-10-18T03:21:18;7.90;;;4.75;;
41927;SDS011;27616;51.420;6.788;2022-10-18T03:23:44;7.68;;;4.70;;
41927;SDS011;27616;51.420;6.788;2022-10-18T03:26:09;10.63;;;5.28;;
41927;SDS011;27616;51.420;6.788;2022-10-18T03:28:35;7.43;;;4.95;;
41927;SDS011;27616;51.420;6.788;2022-10-18T03:31:02;7.45;;;5.15;;
41927;SDS011;27616;51.420;6.788;2022-10-18T03:33:29;9.82;;;4.78;;
41927;SDS011;27616;51.420;6.788;2022-10-18T03:35:55;9.30;;;5.03;;
41927;SDS011;27616;51.420;6.788;2022-10-18T03:38:21;9.40;;;5.57;;
41927;SDS011;27616;51.420;6.788;2022-10-18T03:40:47;7.03;;;4.93;;
41927;SDS011;27616;51.420;6.788;2022-10-18T03:43:14;9.23;;;4.85;;
41927;SDS011;27616;51.420;6.788;2022-10-18T03:45:39;9.43;;;5.70;;
41927;SDS011;27616;51.420;6.788;2022-10-18T03:48:05;8.18;;;5.10;;
41927;SDS011;27616;51.420;6.788;2022-10-18T03:50:31;8.38;;;5.35;;
41927;SDS011;27616;51.420;6.788;2022-10-18T03:52:57;10.77;;;5.88;;
41927;SDS011;27616;51.420;6.788;2022-10-18T03:55:23;10.10;;;5.88;;
41927;SDS011;27616;51.420;6.788;2022-10-18T03:57:49;9.52;;;5.78;;
41927;SDS011;27616;51.420;6.788;2022-10-18T04:00:15;8.93;;;5.95;;
41927;SDS011;27616;51.420;6.788;2022-10-18T04:02:41;10.93;;;5.82;;
41927;SDS011;27616;51.420;6.788;2022-10-18T04:05:07;9.88;;;5.63;;
41927;SDS011;27616;51.420;6.788;2022-10-18T04:07:34;11.02;;;5.45;;
41927;SDS011;27616;51.420;6.788;2022-10-18T04:10:00;10.88;;;5.72;;
41927;SDS011;27616;51.420;6.788;2022-10-18T04:12:26;12.32;;;6.40;;
41927;SDS011;27616;51.420;6.788;2022-10-18T04:14:52;10.65;;;6.22;;
41927;SDS011;27616;51.420;6.788;2022-10-18T04:17:18;10.18;;;6.18;;
41927;SDS011;27616;51.420;6.788;2022-10-18T04:19:44;12.65;;;6.18;;
41927;SDS011;27616;51.420;6.788;2022-10-18T04:22:10;14.23;;;5.72;;
41927;SDS011;27616;51.420;6.788;2022-10-18T04:24:36;10.57;;;5.40;;
41927;SDS011;27616;51.420;6.788;2022-10-18T04:27:03;10.73;;;5.80;;
41927;SDS011;27616;51.420;6.788;2022-10-18T04:29:30;17.45;;;8.13;;
41927;SDS011;27616;51.420;6.788;2022-10-18T04:31:56;15.98;;;6.95;;
41927;SDS011;27616;51.420;6.788;2022-10-18T04:34:22;11.45;;;6.80;;
41927;SDS011;27616;51.420;6.788;2022-10-18T04:36:48;10.82;;;6.38;;
41927;SDS011;27616;51.420;6.788;2022-10-18T04:39:14;10.18;;;6.05;;
41927;SDS011;27616;51.420;6.788;2022-10-18T04:41:40;11.23;;;6.22;;
41927;SDS011;27616;51.420;6.788;2022-10-18T04:44:08;11.25;;;6.45;;
41927;SDS011;27616;51.420;6.788;2022-10-18T04:46:34;13.53;;;6.57;;
41927;SDS011;27616;51.420;6.788;2022-10-18T04:49:00;10.32;;;6.10;;
41927;SDS011;27616;51.420;6.788;2022-10-18T04:51:27;14.52;;;6.93;;
41927;SDS011;27616;51.420;6.788;2022-10-18T04:53:53;12.88;;;6.47;;
41927;SDS011;27616;51.420;6.788;2022-10-18T04:56:19;12.02;;;6.78;;
41927;SDS011;27616;51.420;6.788;2022-10-18T04:58:46;10.95;;;6.63;;
41927;SDS011;27616;51.420;6.788;2022-10-18T05:01:11;11.45;;;6.68;;
41927;SDS011;27616;51.420;6.788;2022-10-18T05:03:38;12.35;;;6.53;;
41927;SDS011;27616;51.420;6.788;2022-10-18T05:06:04;15.80;;;7.13;;
41927;SDS011;27616;51.420;6.788;2022-10-18T05:08:31;11.35;;;6.10;;
41927;SDS011;27616;51.420;6.788;2022-10-18T05:10:58;12.93;;;7.70;;
41927;SDS011;27616;51.420;6.788;2022-10-18T05:13:25;15.70;;;9.40;;
41927;SDS011;27616;51.420;6.788;2022-10-18T05:15:51;15.50;;;9.23;;
41927;SDS011;27616;51.420;6.788;2022-10-18T05:18:17;17.17;;;10.07;;
41927;SDS011;27616;51.420;6.788;2022-10-18T05:20:43;18.65;;;10.60;;
41927;SDS011;27616;51.420;6.788;2022-10-18T05:23:09;21.08;;;11.70;;
41927;SDS011;27616;51.420;6.788;2022-10-18T05:25:38;16.90;;;10.30;;
41927;SDS011;27616;51.420;6.788;2022-10-18T05:28:05;21.73;;;12.13;;
41927;SDS011;27616;51.420;6.788;2022-10-18T05:30:31;18.55;;;12.30;;
41927;SDS011;27616;51.420;6.788;2022-10-18T05:32:58;20.20;;;12.90;;
41927;SDS011;27616;51.420;6.788;2022-10-18T05:35:24;18.75;;;12.40;;
41927;SDS011;27616;51.420;6.788;2022-10-18T05:37:50;18.45;;;12.30;;
41927;SDS011;27616;51.420;6.788;2022-10-18T05:40:15;17.25;;;11.05;;
41927;SDS011;27616;51.420;6.788;2022-10-18T05:42:41;21.15;;;13.27;;
41927;SDS011;27616;51.420;6.788;2022-10-18T05:45:07;22.67;;;13.85;;
41927;SDS011;27616;51.420;6.788;2022-10-18T05:47:33;24.02;;;14.00;;
41927;SDS011;27616;51.420;6.788;2022-10-18T05:49:59;21.33;;;13.40;;
41927;SDS011;27616;51.420;6.788;2022-10-18T05:52:25;21.20;;;13.13;;
41927;SDS011;27616;51.420;6.788;2022-10-18T05:54:51;16.90;;;10.80;;
41927;SDS011;27616;51.420;6.788;2022-10-18T05:57:17;18.55;;;11.13;;
41927;SDS011;27616;51.420;6.788;2022-10-18T05:59:43;20.40;;;11.55;;
41927;SDS011;27616;51.420;6.788;2022-10-18T06:02:10;15.70;;;10.30;;
41927;SDS011;27616;51.420;6.788;2022-10-18T06:04:36;21.80;;;11.88;;
41927;SDS011;27616;51.420;6.788;2022-10-18T06:07:02;20.10;;;12.13;;
41927;SDS011;27616;51.420;6.788;2022-10-18T06:09:33;23.30;;;12.93;;
41927;SDS011;27616;51.420;6.788;2022-10-18T06:11:59;20.80;;;13.55;;
41927;SDS011;27616;51.420;6.788;2022-10-18T06:14:25;19.25;;;12.52;;
41927;SDS011;27616;51.420;6.788;2022-10-18T06:16:51;18.90;;;12.02;;
41927;SDS011;27616;51.420;6.788;2022-10-18T06:19:17;20.92;;;12.95;;
41927;SDS011;27616;51.420;6.788;2022-10-18T06:21:43;18.80;;;12.07;;
41927;SDS011;27616;51.420;6.788;2022-10-18T06:24:08;21.13;;;13.85;;
41927;SDS011;27616;51.420;6.788;2022-10-18T06:26:34;22.60;;;14.02;;
41927;SDS011;27616;51.420;6.788;2022-10-18T06:29:00;21.30;;;14.20;;
41927;SDS011;27616;51.420;6.788;2022-10-18T06:31:26;21.60;;;13.85;;
41927;SDS011;27616;51.420;6.788;2022-10-18T06:33:54;22.50;;;14.52;;
41927;SDS011;27616;51.420;6.788;2022-10-18T06:36:21;23.00;;;13.93;;
41927;SDS011;27616;51.420;6.788;2022-10-18T06:38:47;25.60;;;15.27;;
41927;SDS011;27616;51.420;6.788;2022-10-18T06:41:13;24.50;;;13.45;;
41927;SDS011;27616;51.420;6.788;2022-10-18T06:43:39;25.52;;;15.25;;
41927;SDS011;27616;51.420;6.788;2022-10-18T06:46:06;24.80;;;14.40;;
41927;SDS011;27616;51.420;6.788;2022-10-18T06:48:33;26.10;;;15.45;;
41927;SDS011;27616;51.420;6.788;2022-10-18T06:51:01;24.67;;;15.18;;
41927;SDS011;27616;51.420;6.788;2022-10-18T06:53:30;24.02;;;15.82;;
41927;SDS011;27616;51.420;6.788;2022-10-18T06:55:58;24.17;;;15.20;;
41927;SDS011;27616;51.420;6.788;2022-10-18T06:58:24;24.88;;;15.80;;
41927;SDS011;27616;51.420;6.788;2022-10-18T07:00:50;20.02;;;13.55;;
41927;SDS011;27616;51.420;6.788;2022-10-18T07:03:16;28.70;;;16.77;;
41927;SDS011;27616;51.420;6.788;2022-10-18T07:05:42;28.05;;;17.17;;
41927;SDS011;27616;51.420;6.788;2022-10-18T07:08:08;27.80;;;17.58;;
41927;SDS011;27616;51.420;6.788;2022-10-18T07:10:34;30.27;;;18.20;;
41927;SDS011;27616;51.420;6.788;2022-10-18T07:13:00;26.55;;;17.92;;
41927;SDS011;27616;51.420;6.788;2022-10-18T07:15:26;30.02;;;18.42;;
41927;SDS011;27616;51.420;6.788;2022-10-18T07:17:52;24.98;;;16.15;;
41927;SDS011;27616;51.420;6.788;2022-10-18T07:20:18;30.13;;;19.92;;
41927;SDS011;27616;51.420;6.788;2022-10-18T07:22:44;28.50;;;18.02;;
41927;SDS011;27616;51.420;6.788;2022-10-18T07:25:09;28.42;;;18.70;;
41927;SDS011;27616;51.420;6.788;2022-10-18T07:27:36;27.27;;;17.77;;
41927;SDS011;27616;51.420;6.788;2022-10-18T07:30:04;28.20;;;18.30;;
41927;SDS011;27616;51.420;6.788;2022-10-18T07:32:31;33.83;;;18.77;;
41927;SDS011;27616;51.420;6.788;2022-10-18T07:34:57;29.20;;;18.58;;
41927;SDS011;27616;51.420;6.788;2022-10-18T07:37:23;27.33;;;18.27;;
41927;SDS011;27616;51.420;6.788;2022-10-18T07:39:49;29.10;;;17.08;;
41927;SDS011;27616;51.420;6.788;2022-10-18T07:42:15;31.92;;;19.15;;
41927;SDS011;27616;51.420;6.788;2022-10-18T07:44:41;30.00;;;17.90;;
41927;SDS011;27616;51.420;6.788;2022-10-18T07:47:07;36.75;;;21.70;;
41927;SDS011;27616;51.420;6.788;2022-10-18T07:49:33;31.98;;;20.10;;
41927;SDS011;27616;51.420;6.788;2022-10-18T07:51:59;37.72;;;22.25;;
41927;SDS011;27616;51.420;6.788;2022-10-18T07:54:24;39.15;;;23.23;;
41927;SDS011;27616;51.420;6.788;2022-10-18T07:56:50;40.78;;;23.10;;
41927;SDS011;27616;51.420;6.788;2022-10-18T07:59:16;33.13;;;20.95;;
41927;SDS011;27616;51.420;6.788;2022-10-18T08:01:42;36.95;;;22.70;;
41927;SDS011;27616;51.420;6.788;2022-10-18T08:04:08;36.15;;;22.80;;
41927;SDS011;27616;51.420;6.788;2022-10-18T08:06:34;44.95;;;24.95;;
41927;SDS011;27616;51.420;6.788;2022-10-18T08:09:00;39.50;;;23.35;;
41927;SDS011;27616;51.420;6.788;2022-10-18T08:11:26;45.58;;;26.90;;
41927;SDS011;27616;51.420;6.788;2022-10-18T08:13:52;43.47;;;24.80;;
41927;SDS011;27616;51.420;6.788;2022-10-18T08:16:23;39.22;;;22.33;;
41927;SDS011;27616;51.420;6.788;2022-10-18T08:18:50;47.47;;;26.33;;
41927;SDS011;27616;51.420;6.788;2022-10-18T08:21:17;47.00;;;26.08;;
41927;SDS011;27616;51.420;6.788;2022-10-18T08:23:44;49.92;;;27.85;;
41927;SDS011;27616;51.420;6.788;2022-10-18T08:26:11;61.33;;;32.58;;
41927;SDS011;27616;51.420;6.788;2022-10-18T08:28:39;52.25;;;30.05;;
41927;SDS011;27616;51.420;6.788;2022-10-18T08:31:06;64.68;;;33.08;;
41927;SDS011;27616;51.420;6.788;2022-10-18T08:33:35;60.67;;;32.65;;
41927;SDS011;27616;51.420;6.788;2022-10-18T08:36:02;67.05;;;34.67;;
41927;SDS011;27616;51.420;6.788;2022-10-18T08:38:36;67.97;;;36.70;;
41927;SDS011;27616;51.420;6.788;2022-10-18T08:41:25;70.63;;;36.38;;
41927;SDS011;27616;51.420;6.788;2022-10-18T08:46:47;77.35;;;37.78;;
41927;SDS011;27616;51.420;6.788;2022-10-18T08:49:21;65.25;;;33.70;;
41927;SDS011;27616;51.420;6.788;2022-10-18T08:52:15;78.93;;;37.00;;
41927;SDS011;27616;51.420;6.788;2022-10-18T08:55:01;80.22;;;39.05;;
41927;SDS011;27616;51.420;6.788;2022-10-18T08:57:41;100.10;;;45.08;;
41927;SDS011;27616;51.420;6.788;2022-10-18T09:00:16;126.07;;;53.75;;
41927;SDS011;27616;51.420;6.788;2022-10-18T09:05:35;130.32;;;58.03;;
41927;SDS011;27616;51.420;6.788;2022-10-18T09:14:21;98.00;;;47.72;;
41927;SDS011;27616;51.420;6.788;2022-10-18T09:19:41;98.78;;;43.22;;
41927;SDS011;27616;51.420;6.788;2022-10-18T09:23:18;84.20;;;41.13;;
41927;SDS011;27616;51.420;6.788;2022-10-18T09:33:15;71.50;;;38.78;;
41927;SDS011;27616;51.420;6.788;2022-10-18T09:35:49;74.63;;;35.20;;
41927;SDS011;27616;51.420;6.788;2022-10-18T09:38:20;69.70;;;35.53;;
41927;SDS011;27616;51.420;6.788;2022-10-18T09:40:55;59.60;;;32.50;;
41927;SDS011;27616;51.420;6.788;2022-10-18T09:43:50;56.67;;;30.50;;
41927;SDS011;27616;51.420;6.788;2022-10-18T09:46:32;62.28;;;33.65;;
41927;SDS011;27616;51.420;6.788;2022-10-18T09:49:03;68.28;;;34.83;;
41927;SDS011;27616;51.420;6.788;2022-10-18T09:51:41;63.40;;;33.70;;
41927;SDS011;27616;51.420;6.788;2022-10-18T09:54:17;76.80;;;39.17;;
41927;SDS011;27616;51.420;6.788;2022-10-18T09:56:56;75.07;;;39.75;;
41927;SDS011;27616;51.420;6.788;2022-10-18T09:59:36;80.03;;;40.65;;
41927;SDS011;27616;51.420;6.788;2022-10-18T10:02:03;79.32;;;42.97;;
41927;SDS011;27616;51.420;6.788;2022-10-18T10:04:30;79.75;;;41.67;;
41927;SDS011;27616;51.420;6.788;2022-10-18T10:06:56;78.55;;;40.17;;
41927;SDS011;27616;51.420;6.788;2022-10-18T10:09:26;76.10;;;38.75;;
41927;SDS011;27616;51.420;6.788;2022-10-18T10:12:01;68.97;;;37.92;;
41927;SDS011;27616;51.420;6.788;2022-10-18T10:14:28;65.38;;;34.45;;
41927;SDS011;27616;51.420;6.788;2022-10-18T10:16:58;63.28;;;33.13;;
41927;SDS011;27616;51.420;6.788;2022-10-18T10:19:32;57.55;;;30.77;;
41927;SDS011;27616;51.420;6.788;2022-10-18T10:22:10;56.10;;;30.17;;
41927;SDS011;27616;51.420;6.788;2022-10-18T10:24:47;53.78;;;28.20;;
41927;SDS011;27616;51.420;6.788;2022-10-18T10:27:19;49.97;;;27.27;;
41927;SDS011;27616;51.420;6.788;2022-10-18T10:32:22;55.63;;;30.13;;
41927;SDS011;27616;51.420;6.788;2022-10-18T10:34:50;55.17;;;30.17;;
41927;SDS011;27616;51.420;6.788;2022-10-18T10:37:30;51.95;;;29.08;;
41927;SDS011;27616;51.420;6.788;2022-10-18T10:41:01;49.03;;;28.85;;
41927;SDS011;27616;51.420;6.788;2022-10-18T10:43:02;45.72;;;26.58;;
41927;SDS011;27616;51.420;6.788;2022-10-18T10:45:34;48.25;;;28.30;;
41927;SDS011;27616;51.420;6.788;2022-10-18T10:48:10;48.88;;;29.42;;
41927;SDS011;27616;51.420;6.788;2022-10-18T10:50:50;53.00;;;29.83;;
41927;SDS011;27616;51.420;6.788;2022-10-18T10:53:50;52.90;;;28.10;;
41927;SDS011;27616;51.420;6.788;2022-10-18T10:56:25;50.55;;;28.13;;
41927;SDS011;27616;51.420;6.788;2022-10-18T10:59:14;51.85;;;29.00;;
41927;SDS011;27616;51.420;6.788;2022-10-18T11:01:43;47.03;;;27.05;;
41927;SDS011;27616;51.420;6.788;2022-10-18T11:04:21;52.17;;;29.67;;
41927;SDS011;27616;51.420;6.788;2022-10-18T11:09:44;44.13;;;25.80;;
41927;SDS011;27616;51.420;6.788;2022-10-18T11:15:30;46.70;;;25.52;;
41927;SDS011;27616;51.420;6.788;2022-10-18T11:23:13;44.47;;;24.17;;
41927;SDS011;27616;51.420;6.788;2022-10-18T11:26:01;50.75;;;26.17;;
41927;SDS011;27616;51.420;6.788;2022-10-18T11:31:47;43.83;;;23.63;;
41927;SDS011;27616;51.420;6.788;2022-10-18T11:50:46;38.08;;;21.83;;
41927;SDS011;27616;51.420;6.788;2022-10-18T11:53:44;35.90;;;19.63;;
41927;SDS011;27616;51.420;6.788;2022-10-18T12:04:39;27.65;;;13.32;;
41927;SDS011;27616;51.420;6.788;2022-10-18T12:07:10;24.95;;;11.82;;
41927;SDS011;27616;51.420;6.788;2022-10-18T12:09:43;18.00;;;10.43;;
41927;SDS011;27616;51.420;6.788;2022-10-18T12:12:23;18.77;;;9.35;;
41927;SDS011;27616;51.420;6.788;2022-10-18T12:14:59;13.93;;;8.32;;
41927;SDS011;27616;51.420;6.788;2022-10-18T12:20:25;16.15;;;8.13;;
41927;SDS011;27616;51.420;6.788;2022-10-18T12:22:59;19.85;;;8.25;;
41927;SDS011;27616;51.420;6.788;2022-10-18T12:25:39;18.77;;;7.82;;
41927;SDS011;27616;51.420;6.788;2022-10-18T12:32:01;17.55;;;8.05;;
41927;SDS011;27616;51.420;6.788;2022-10-18T12:34:24;20.25;;;9.52;;
41927;SDS011;27616;51.420;6.788;2022-10-18T12:39:38;16.25;;;8.30;;
41927;SDS011;27616;51.420;6.788;2022-10-18T12:42:20;20.80;;;9.40;;
41927;SDS011;27616;51.420;6.788;2022-10-18T12:44:59;19.42;;;8.55;;
41927;SDS011;27616;51.420;6.788;2022-10-18T12:47:37;17.00;;;7.75;;
41927;SDS011;27616;51.420;6.788;2022-10-18T12:50:06;15.10;;;6.60;;
41927;SDS011;27616;51.420;6.788;2022-10-18T12:53:32;14.93;;;6.82;;
41927;SDS011;27616;51.420;6.788;2022-10-18T12:55:39;23.20;;;8.07;;
41927;SDS011;27616;51.420;6.788;2022-10-18T12:58:43;22.15;;;8.75;;
41927;SDS011;27616;51.420;6.788;2022-10-18T13:01:09;16.25;;;7.60;;
41927;SDS011;27616;51.420;6.788;2022-10-18T13:03:39;17.80;;;6.47;;
41927;SDS011;27616;51.420;6.788;2022-10-18T13:06:17;25.33;;;8.05;;
41927;SDS011;27616;51.420;6.788;2022-10-18T13:08:43;22.10;;;8.80;;
41927;SDS011;27616;51.420;6.788;2022-10-18T13:27:39;15.63;;;6.38;;
41927;SDS011;27616;51.420;6.788;2022-10-18T13:41:30;21.13;;;6.47;;
41927;SDS011;27616;51.420;6.788;2022-10-18T14:00:47;16.85;;;6.28;;
41927;SDS011;27616;51.420;6.788;2022-10-18T14:03:44;17.88;;;5.20;;
41927;SDS011;27616;51.420;6.788;2022-10-18T14:06:32;14.18;;;3.85;;
41927;SDS011;27616;51.420;6.788;2022-10-18T14:09:20;8.80;;;3.33;;
41927;SDS011;27616;51.420;6.788;2022-10-18T14:12:10;11.05;;;3.50;;
41927;SDS011;27616;51.420;6.788;2022-10-18T14:14:55;12.85;;;4.03;;
41927;SDS011;27616;51.420;6.788;2022-10-18T14:17:40;11.93;;;3.95;;
41927;SDS011;27616;51.420;6.788;2022-10-18T14:20:18;11.00;;;4.13;;
41927;SDS011;27616;51.420;6.788;2022-10-18T14:22:47;15.88;;;5.05;;
41927;SDS011;27616;51.420;6.788;2022-10-18T14:25:22;11.98;;;4.65;;
41927;SDS011;27616;51.420;6.788;2022-10-18T14:28:11;13.68;;;3.88;;
41927;SDS011;27616;51.420;6.788;2022-10-18T14:30:50;10.48;;;3.42;;
41927;SDS011;27616;51.420;6.788;2022-10-18T14:33:30;9.15;;;3.30;;
41927;SDS011;27616;51.420;6.788;2022-10-18T14:38:32;12.07;;;3.78;;
41927;SDS011;27616;51.420;6.788;2022-10-18T14:41:12;13.38;;;3.90;;
41927;SDS011;27616;51.420;6.788;2022-10-18T14:43:41;10.02;;;3.28;;
41927;SDS011;27616;51.420;6.788;2022-10-18T14:46:09;11.75;;;3.35;;
41927;SDS011;27616;51.420;6.788;2022-10-18T14:48:40;8.20;;;2.88;;
41927;SDS011;27616;51.420;6.788;2022-10-18T14:51:09;9.07;;;3.55;;
41927;SDS011;27616;51.420;6.788;2022-10-18T14:53:38;15.52;;;4.40;;
41927;SDS011;27616;51.420;6.788;2022-10-18T14:56:06;13.63;;;4.03;;
41927;SDS011;27616;51.420;6.788;2022-10-18T14:58:33;9.80;;;2.50;;
41927;SDS011;27616;51.420;6.788;2022-10-18T15:03:30;8.07;;;2.22;;
41927;SDS011;27616;51.420;6.788;2022-10-18T15:05:59;7.35;;;2.58;;
41927;SDS011;27616;51.420;6.788;2022-10-18T15:08:40;6.93;;;2.50;;
41927;SDS011;27616;51.420;6.788;2022-10-18T15:11:07;11.07;;;3.45;;
41927;SDS011;27616;51.420;6.788;2022-10-18T15:13:36;10.40;;;2.80;;
41927;SDS011;27616;51.420;6.788;2022-10-18T15:16:10;13.60;;;3.72;;
41927;SDS011;27616;51.420;6.788;2022-10-18T15:18:42;11.60;;;2.78;;
41927;SDS011;27616;51.420;6.788;2022-10-18T15:21:21;11.45;;;3.15;;
41927;SDS011;27616;51.420;6.788;2022-10-18T15:23:49;11.48;;;2.67;;
41927;SDS011;27616;51.420;6.788;2022-10-18T15:26:19;9.05;;;2.58;;
41927;SDS011;27616;51.420;6.788;2022-10-18T15:28:48;6.57;;;2.30;;
41927;SDS011;27616;51.420;6.788;2022-10-18T15:31:27;12.32;;;2.33;;
41927;SDS011;27616;51.420;6.788;2022-10-18T15:34:14;11.32;;;3.75;;
41927;SDS011;27616;51.420;6.788;2022-10-18T15:36:47;5.72;;;2.28;;
41927;SDS011;27616;51.420;6.788;2022-10-18T15:39:17;10.77;;;2.60;;
41927;SDS011;27616;51.420;6.788;2022-10-18T15:41:57;10.13;;;2.67;;
41927;SDS011;27616;51.420;6.788;2022-10-18T15:54:46;12.35;;;3.25;;
41927;SDS011;27616;51.420;6.788;2022-10-18T15:57:12;10.23;;;3.00;;
41927;SDS011;27616;51.420;6.788;2022-10-18T15:59:48;14.15;;;2.85;;
41927;SDS011;27616;51.420;6.788;2022-10-18T16:02:37;9.77;;;2.63;;
41927;SDS011;27616;51.420;6.788;2022-10-18T16:05:03;7.85;;;2.60;;
41927;SDS011;27616;51.420;6.788;2022-10-18T16:07:29;9.88;;;2.35;;
41927;SDS011;27616;51.420;6.788;2022-10-18T16:09:55;9.10;;;2.95;;
41927;SDS011;27616;51.420;6.788;2022-10-18T16:12:21;7.38;;;2.65;;
41927;SDS011;27616;51.420;6.788;2022-10-18T16:14:47;9.45;;;2.30;;
41927;SDS011;27616;51.420;6.788;2022-10-18T16:17:13;9.02;;;2.80;;
41927;SDS011;27616;51.420;6.788;2022-10-18T16:19:44;13.63;;;3.03;;
41927;SDS011;27616;51.420;6.788;2022-10-18T16:22:10;14.90;;;3.30;;
41927;SDS011;27616;51.420;6.788;2022-10-18T16:24:37;10.60;;;2.53;;
41927;SDS011;27616;51.420;6.788;2022-10-18T16:29:33;13.63;;;2.60;;
41927;SDS011;27616;51.420;6.788;2022-10-18T16:31:59;8.60;;;2.50;;
41927;SDS011;27616;51.420;6.788;2022-10-18T16:34:25;7.85;;;2.65;;
41927;SDS011;27616;51.420;6.788;2022-10-18T16:36:52;15.52;;;3.45;;
41927;SDS011;27616;51.420;6.788;2022-10-18T16:39:19;15.02;;;2.70;;
41927;SDS011;27616;51.420;6.788;2022-10-18T16:41:46;23.48;;;2.97;;
41927;SDS011;27616;51.420;6.788;2022-10-18T16:44:13;12.82;;;2.90;;
41927;SDS011;27616;51.420;6.788;2022-10-18T16:46:40;11.20;;;2.58;;
41927;SDS011;27616;51.420;6.788;2022-10-18T16:49:06;8.52;;;3.00;;
41927;SDS011;27616;51.420;6.788;2022-10-18T16:51:43;18.25;;;4.93;;
41927;SDS011;27616;51.420;6.788;2022-10-18T16:54:09;15.15;;;4.28;;
41927;SDS011;27616;51.420;6.788;2022-10-18T16:56:35;13.55;;;3.75;;
41927;SDS011;27616;51.420;6.788;2022-10-18T16:59:02;15.23;;;3.50;;
41927;SDS011;27616;51.420;6.788;2022-10-18T17:01:28;9.05;;;2.88;;
41927;SDS011;27616;51.420;6.788;2022-10-18T17:03:54;10.52;;;2.95;;
41927;SDS011;27616;51.420;6.788;2022-10-18T17:06:24;10.27;;;3.07;;
41927;SDS011;27616;51.420;6.788;2022-10-18T17:08:52;10.57;;;2.75;;
41927;SDS011;27616;51.420;6.788;2022-10-18T17:13:48;12.02;;;2.88;;
41927;SDS011;27616;51.420;6.788;2022-10-18T17:16:24;9.82;;;2.70;;
41927;SDS011;27616;51.420;6.788;2022-10-18T17:19:00;10.73;;;2.85;;
41927;SDS011;27616;51.420;6.788;2022-10-18T17:21:28;11.82;;;3.20;;
41927;SDS011;27616;51.420;6.788;2022-10-18T17:23:55;12.48;;;4.43;;
41927;SDS011;27616;51.420;6.788;2022-10-18T17:28:54;13.75;;;4.25;;
41927;SDS011;27616;51.420;6.788;2022-10-18T17:31:24;15.77;;;4.57;;
41927;SDS011;27616;51.420;6.788;2022-10-18T17:33:50;17.23;;;5.63;;
41927;SDS011;27616;51.420;6.788;2022-10-18T17:36:19;13.63;;;4.45;;
41927;SDS011;27616;51.420;6.788;2022-10-18T17:38:45;16.63;;;3.80;;
41927;SDS011;27616;51.420;6.788;2022-10-18T17:41:13;10.88;;;3.05;;
41927;SDS011;27616;51.420;6.788;2022-10-18T17:43:39;15.40;;;3.85;;